Cuite, Brazil
Current Conditions -  °F | °C
As of 5:00 AM on Saturday 20 Dec 2014 (Local Time) from SBKG Reporting Station
Haze Haze  
Wind Chill: 70°   Ceiling: 700
Heat Index: 70°   Visibility: 3mi
Dew Point: 68°   Wind: 13mph
Humidity: 94%   Direction: 100°E
Pressure: 29.97"   Gusts: NA
Location:  6.48°S, 36.15°W
Report Text: SBKG 200800Z 10011KT 5000 BR BKN007 21/20 Q1015
Loading
Personal Weather Stations






























Interactive Weather Map New forecast layout! Learn more

10-Day Weather Forecast

Advertisements
Track Severe Weather on mobile